sensor_id;sensor_type;location;lat;lon;timestamp;temperature;humidity
16728;DHT22;8482;54.396;18.590;2023-04-25T04:32:31;12.40;99.90
16728;DHT22;8482;54.396;18.590;2023-04-25T04:34:58;12.30;99.90
16728;DHT22;8482;54.396;18.590;2023-04-25T04:37:25;12.30;99.90
16728;DHT22;8482;54.396;18.590;2023-04-25T04:39:50;12.30;99.90
16728;DHT22;8482;54.396;18.590;2023-04-25T04:42:17;12.30;99.90
16728;DHT22;8482;54.396;18.590;2023-04-25T04:44:43;12.20;99.90
16728;DHT22;8482;54.396;18.590;2023-04-25T04:47:10;12.20;99.90
16728;DHT22;8482;54.396;18.590;2023-04-25T04:49:36;12.20;99.90
16728;DHT22;8482;54.396;18.590;2023-04-25T04:52:01;12.20;99.90
16728;DHT22;8482;54.396;18.590;2023-04-25T04:54:27;12.10;99.90
16728;DHT22;8482;54.396;18.590;2023-04-25T04:56:53;12.10;99.90
16728;DHT22;8482;54.396;18.590;2023-04-25T04:59:19;12.10;99.90
16728;DHT22;8482;54.396;18.590;2023-04-25T05:01:45;12.10;99.90
16728;DHT22;8482;54.396;18.590;2023-04-25T05:04:12;12.10;99.90
16728;DHT22;8482;54.396;18.590;2023-04-25T05:06:38;12.10;99.90
16728;DHT22;8482;54.396;18.590;2023-04-25T05:09:03;12.10;99.90
16728;DHT22;8482;54.396;18.590;2023-04-25T05:11:29;12.00;99.90
16728;DHT22;8482;54.396;18.590;2023-04-25T05:13:55;12.00;99.90
16728;DHT22;8482;54.396;18.590;2023-04-25T05:16:21;12.00;99.90
16728;DHT22;8482;54.396;18.590;2023-04-25T05:18:47;12.00;99.90
16728;DHT22;8482;54.396;18.590;2023-04-25T05:21:13;12.00;99.90
16728;DHT22;8482;54.396;18.590;2023-04-25T05:23:39;12.00;99.90
16728;DHT22;8482;54.396;18.590;2023-04-25T05:26:05;12.00;99.90
16728;DHT22;8482;54.396;18.590;2023-04-25T05:28:31;12.00;99.90
16728;DHT22;8482;54.396;18.590;2023-04-25T05:30:57;12.00;99.90
16728;DHT22;8482;54.396;18.590;2023-04-25T05:33:23;12.00;99.90
16728;DHT22;8482;54.396;18.590;2023-04-25T05:35:49;12.00;99.90
16728;DHT22;8482;54.396;18.590;2023-04-25T05:38:15;12.00;99.90
16728;DHT22;8482;54.396;18.590;2023-04-25T05:40:41;12.00;99.90
16728;DHT22;8482;54.396;18.590;2023-04-25T05:43:07;11.90;99.90
16728;DHT22;8482;54.396;18.590;2023-04-25T05:45:33;11.90;99.90
16728;DHT22;8482;54.396;18.590;2023-04-25T05:47:59;11.90;99.90
16728;DHT22;8482;54.396;18.590;2023-04-25T05:50:25;11.90;99.90
16728;DHT22;8482;54.396;18.590;2023-04-25T05:52:51;11.90;99.90
16728;DHT22;8482;54.396;18.590;2023-04-25T05:55:17;11.90;99.90
16728;DHT22;8482;54.396;18.590;2023-04-25T05:57:43;11.90;99.90
16728;DHT22;8482;54.396;18.590;2023-04-25T06:00:12;11.90;99.90
16728;DHT22;8482;54.396;18.590;2023-04-25T06:02:40;11.90;99.90
16728;DHT22;8482;54.396;18.590;2023-04-25T06:05:06;11.90;99.90
16728;DHT22;8482;54.396;18.590;2023-04-25T06:07:32;11.90;99.90
16728;DHT22;8482;54.396;18.590;2023-04-25T06:09:58;11.90;99.90
16728;DHT22;8482;54.396;18.590;2023-04-25T06:12:26;11.90;99.90
16728;DHT22;8482;54.396;18.590;2023-04-25T06:14:52;11.90;99.90
16728;DHT22;8482;54.396;18.590;2023-04-25T06:17:17;11.80;99.90
16728;DHT22;8482;54.396;18.590;2023-04-25T06:19:43;11.80;99.90
16728;DHT22;8482;54.396;18.590;2023-04-25T06:22:10;11.80;99.90
16728;DHT22;8482;54.396;18.590;2023-04-25T06:24:36;11.80;99.90
16728;DHT22;8482;54.396;18.590;2023-04-25T06:27:02;11.70;99.90
16728;DHT22;8482;54.396;18.590;2023-04-25T06:29:28;11.70;99.90
16728;DHT22;8482;54.396;18.590;2023-04-25T06:31:53;11.70;99.90
16728;DHT22;8482;54.396;18.590;2023-04-25T06:34:19;11.70;99.90
16728;DHT22;8482;54.396;18.590;2023-04-25T06:36:46;11.70;99.90
16728;DHT22;8482;54.396;18.590;2023-04-25T06:39:11;11.70;99.90
16728;DHT22;8482;54.396;18.590;2023-04-25T06:41:37;11.70;99.90
16728;DHT22;8482;54.396;18.590;2023-04-25T06:44:03;11.70;99.90
16728;DHT22;8482;54.396;18.590;2023-04-25T06:46:29;11.70;99.90
16728;DHT22;8482;54.396;18.590;2023-04-25T06:48:55;11.70;99.90
16728;DHT22;8482;54.396;18.590;2023-04-25T06:51:21;11.70;99.90
16728;DHT22;8482;54.396;18.590;2023-04-25T06:53:47;11.70;99.90
16728;DHT22;8482;54.396;18.590;2023-04-25T06:56:12;11.70;99.90
16728;DHT22;8482;54.396;18.590;2023-04-25T06:58:38;11.80;99.90
16728;DHT22;8482;54.396;18.590;2023-04-25T07:01:04;11.80;99.90
16728;DHT22;8482;54.396;18.590;2023-04-25T07:03:30;11.80;99.90
16728;DHT22;8482;54.396;18.590;2023-04-25T07:05:56;11.80;99.90
16728;DHT22;8482;54.396;18.590;2023-04-25T07:08:21;11.80;99.90
16728;DHT22;8482;54.396;18.590;2023-04-25T07:10:47;11.80;99.90
16728;DHT22;8482;54.396;18.590;2023-04-25T07:13:13;11.80;99.90
16728;DHT22;8482;54.396;18.590;2023-04-25T07:15:39;11.80;99.90
16728;DHT22;8482;54.396;18.590;2023-04-25T07:18:05;11.80;99.90
16728;DHT22;8482;54.396;18.590;2023-04-25T07:20:31;11.80;99.90
16728;DHT22;8482;54.396;18.590;2023-04-25T07:22:58;11.80;99.90
16728;DHT22;8482;54.396;18.590;2023-04-25T07:25:23;11.80;99.90
16728;DHT22;8482;54.396;18.590;2023-04-25T07:27:50;11.90;99.90
16728;DHT22;8482;54.396;18.590;2023-04-25T07:30:15;11.90;99.90
16728;DHT22;8482;54.396;18.590;2023-04-25T07:32:41;11.90;99.90
16728;DHT22;8482;54.396;18.590;2023-04-25T07:35:07;11.90;99.90
16728;DHT22;8482;54.396;18.590;2023-04-25T07:37:34;11.90;99.90
16728;DHT22;8482;54.396;18.590;2023-04-25T07:40:01;11.90;99.90
16728;DHT22;8482;54.396;18.590;2023-04-25T07:42:29;11.90;99.90
16728;DHT22;8482;54.396;18.590;2023-04-25T07:44:55;11.90;99.90
16728;DHT22;8482;54.396;18.590;2023-04-25T07:47:21;11.90;99.90
16728;DHT22;8482;54.396;18.590;2023-04-25T07:49:47;11.90;99.90
16728;DHT22;8482;54.396;18.590;2023-04-25T07:52:13;12.00;99.90
16728;DHT22;8482;54.396;18.590;2023-04-25T07:54:39;12.00;99.90
16728;DHT22;8482;54.396;18.590;2023-04-25T07:57:05;12.00;99.90
16728;DHT22;8482;54.396;18.590;2023-04-25T07:59:34;12.00;99.90
16728;DHT22;8482;54.396;18.590;2023-04-25T08:02:00;12.00;99.90
16728;DHT22;8482;54.396;18.590;2023-04-25T08:04:26;12.00;99.90
16728;DHT22;8482;54.396;18.590;2023-04-25T08:06:52;12.00;99.90
16728;DHT22;8482;54.396;18.590;2023-04-25T08:09:19;12.00;99.90
16728;DHT22;8482;54.396;18.590;2023-04-25T08:11:46;12.00;99.90
16728;DHT22;8482;54.396;18.590;2023-04-25T08:14:12;12.10;99.90
16728;DHT22;8482;54.396;18.590;2023-04-25T08:16:39;12.10;99.90
16728;DHT22;8482;54.396;18.590;2023-04-25T08:19:05;12.10;99.90
16728;DHT22;8482;54.396;18.590;2023-04-25T08:21:31;12.20;99.90
16728;DHT22;8482;54.396;18.590;2023-04-25T08:23:58;12.20;99.90
16728;DHT22;8482;54.396;18.590;2023-04-25T08:26:25;12.20;99.90
16728;DHT22;8482;54.396;18.590;2023-04-25T08:28:51;12.30;99.90
16728;DHT22;8482;54.396;18.590;2023-04-25T08:31:17;12.30;99.90
16728;DHT22;8482;54.396;18.590;2023-04-25T08:33:43;12.30;99.90
16728;DHT22;8482;54.396;18.590;2023-04-25T08:36:10;12.30;99.90
16728;DHT22;8482;54.396;18.590;2023-04-25T08:38:36;12.30;99.90
16728;DHT22;8482;54.396;18.590;2023-04-25T08:41:03;12.40;99.90
16728;DHT22;8482;54.396;18.590;2023-04-25T08:43:30;12.40;99.90
16728;DHT22;8482;54.396;18.590;2023-04-25T08:46:00;12.50;99.90
16728;DHT22;8482;54.396;18.590;2023-04-25T08:48:27;12.50;99.90
16728;DHT22;8482;54.396;18.590;2023-04-25T08:50:56;12.50;99.90
16728;DHT22;8482;54.396;18.590;2023-04-25T08:53:29;12.50;99.90
16728;DHT22;8482;54.396;18.590;2023-04-25T08:55:59;12.60;99.90
16728;DHT22;8482;54.396;18.590;2023-04-25T08:58:27;12.60;99.90
16728;DHT22;8482;54.396;18.590;2023-04-25T09:00:54;12.60;99.90
16728;DHT22;8482;54.396;18.590;2023-04-25T09:03:20;12.70;99.90
16728;DHT22;8482;54.396;18.590;2023-04-25T09:05:46;12.70;99.90
16728;DHT22;8482;54.396;18.590;2023-04-25T09:08:12;12.70;99.90
16728;DHT22;8482;54.396;18.590;2023-04-25T09:10:39;12.80;99.90
16728;DHT22;8482;54.396;18.590;2023-04-25T09:13:14;12.80;99.90
16728;DHT22;8482;54.396;18.590;2023-04-25T09:15:51;12.80;99.90
16728;DHT22;8482;54.396;18.590;2023-04-25T09:18:28;12.90;99.90
16728;DHT22;8482;54.396;18.590;2023-04-25T09:21:08;12.90;99.90
16728;DHT22;8482;54.396;18.590;2023-04-25T09:23:45;12.90;99.90
16728;DHT22;8482;54.396;18.590;2023-04-25T09:26:18;12.90;99.90
16728;DHT22;8482;54.396;18.590;2023-04-25T09:28:45;12.90;99.90
16728;DHT22;8482;54.396;18.590;2023-04-25T09:31:21;12.90;99.90
16728;DHT22;8482;54.396;18.590;2023-04-25T09:33:49;13.00;99.90
16728;DHT22;8482;54.396;18.590;2023-04-25T09:36:15;12.90;99.90
16728;DHT22;8482;54.396;18.590;2023-04-25T09:38:43;13.00;99.90
16728;DHT22;8482;54.396;18.590;2023-04-25T09:41:11;13.00;99.90
16728;DHT22;8482;54.396;18.590;2023-04-25T09:43:38;13.00;99.90
16728;DHT22;8482;54.396;18.590;2023-04-25T09:46:09;13.00;99.90
16728;DHT22;8482;54.396;18.590;2023-04-25T09:48:36;13.00;99.90
16728;DHT22;8482;54.396;18.590;2023-04-25T09:51:07;13.10;99.90
16728;DHT22;8482;54.396;18.590;2023-04-25T09:53:41;13.10;99.90
16728;DHT22;8482;54.396;18.590;2023-04-25T09:56:10;13.10;99.90
16728;DHT22;8482;54.396;18.590;2023-04-25T09:58:38;13.10;99.90
16728;DHT22;8482;54.396;18.590;2023-04-25T10:01:11;13.10;99.90
16728;DHT22;8482;54.396;18.590;2023-04-25T10:03:39;13.10;99.90
16728;DHT22;8482;54.396;18.590;2023-04-25T10:06:14;13.10;99.90
16728;DHT22;8482;54.396;18.590;2023-04-25T10:08:45;13.20;99.90
16728;DHT22;8482;54.396;18.590;2023-04-25T10:11:17;13.20;99.90
16728;DHT22;8482;54.396;18.590;2023-04-25T10:13:44;13.20;99.90
16728;DHT22;8482;54.396;18.590;2023-04-25T10:16:11;13.20;99.90
16728;DHT22;8482;54.396;18.590;2023-04-25T10:18:37;13.30;99.90
16728;DHT22;8482;54.396;18.590;2023-04-25T10:21:04;13.30;99.90
16728;DHT22;8482;54.396;18.590;2023-04-25T10:23:32;13.30;99.90
16728;DHT22;8482;54.396;18.590;2023-04-25T10:26:00;13.30;99.90
16728;DHT22;8482;54.396;18.590;2023-04-25T10:28:26;13.40;99.90
16728;DHT22;8482;54.396;18.590;2023-04-25T10:31:04;13.40;99.90
16728;DHT22;8482;54.396;18.590;2023-04-25T10:33:37;13.40;99.90
16728;DHT22;8482;54.396;18.590;2023-04-25T10:36:34;13.30;99.90
16728;DHT22;8482;54.396;18.590;2023-04-25T10:39:06;13.30;99.90
16728;DHT22;8482;54.396;18.590;2023-04-25T10:44:26;13.30;99.90
16728;DHT22;8482;54.396;18.590;2023-04-25T10:46:57;13.30;99.90
16728;DHT22;8482;54.396;18.590;2023-04-25T10:49:38;13.30;99.90
16728;DHT22;8482;54.396;18.590;2023-04-25T10:52:15;13.30;99.90
16728;DHT22;8482;54.396;18.590;2023-04-25T10:57:50;13.40;99.90
16728;DHT22;8482;54.396;18.590;2023-04-25T11:00:18;13.40;99.90
16728;DHT22;8482;54.396;18.590;2023-04-25T11:02:52;13.40;99.90
16728;DHT22;8482;54.396;18.590;2023-04-25T11:05:37;13.40;99.90
16728;DHT22;8482;54.396;18.590;2023-04-25T11:08:11;13.40;99.90
16728;DHT22;8482;54.396;18.590;2023-04-25T11:10:40;13.40;99.90
16728;DHT22;8482;54.396;18.590;2023-04-25T11:13:05;13.40;99.90
16728;DHT22;8482;54.396;18.590;2023-04-25T11:15:31;13.40;99.90
16728;DHT22;8482;54.396;18.590;2023-04-25T11:17:57;13.40;99.90
16728;DHT22;8482;54.396;18.590;2023-04-25T11:20:25;13.50;99.90
16728;DHT22;8482;54.396;18.590;2023-04-25T11:22:51;13.50;99.90
16728;DHT22;8482;54.396;18.590;2023-04-25T11:25:17;13.50;99.90
16728;DHT22;8482;54.396;18.590;2023-04-25T11:30:17;13.60;99.90
16728;DHT22;8482;54.396;18.590;2023-04-25T11:32:43;13.60;99.90
16728;DHT22;8482;54.396;18.590;2023-04-25T11:35:10;13.60;99.90
16728;DHT22;8482;54.396;18.590;2023-04-25T11:37:38;13.60;99.90
16728;DHT22;8482;54.396;18.590;2023-04-25T11:40:06;13.60;99.90
16728;DHT22;8482;54.396;18.590;2023-04-25T11:42:41;13.60;99.90
16728;DHT22;8482;54.396;18.590;2023-04-25T11:45:09;13.60;99.90
16728;DHT22;8482;54.396;18.590;2023-04-25T11:47:36;13.60;99.90
16728;DHT22;8482;54.396;18.590;2023-04-25T11:50:04;13.50;99.90
16728;DHT22;8482;54.396;18.590;2023-04-25T11:52:40;13.50;99.90
16728;DHT22;8482;54.396;18.590;2023-04-25T11:55:16;13.50;99.90
16728;DHT22;8482;54.396;18.590;2023-04-25T11:57:46;13.50;99.90
16728;DHT22;8482;54.396;18.590;2023-04-25T12:00:16;13.50;99.90
16728;DHT22;8482;54.396;18.590;2023-04-25T12:02:46;13.50;99.90
16728;DHT22;8482;54.396;18.590;2023-04-25T12:05:14;13.40;99.90
16728;DHT22;8482;54.396;18.590;2023-04-25T12:07:42;13.50;99.90
16728;DHT22;8482;54.396;18.590;2023-04-25T12:10:13;13.50;99.90
16728;DHT22;8482;54.396;18.590;2023-04-25T12:12:44;13.40;99.90
16728;DHT22;8482;54.396;18.590;2023-04-25T12:15:23;13.40;99.90
16728;DHT22;8482;54.396;18.590;2023-04-25T12:17:51;13.40;99.90
16728;DHT22;8482;54.396;18.590;2023-04-25T12:20:21;13.40;99.90
16728;DHT22;8482;54.396;18.590;2023-04-25T12:22:50;13.40;99.90
16728;DHT22;8482;54.396;18.590;2023-04-25T12:25:39;13.40;99.90
16728;DHT22;8482;54.396;18.590;2023-04-25T12:28:22;13.40;99.90
16728;DHT22;8482;54.396;18.590;2023-04-25T12:30:59;13.40;99.90
16728;DHT22;8482;54.396;18.590;2023-04-25T12:33:27;13.50;99.90
16728;DHT22;8482;54.396;18.590;2023-04-25T12:35:55;13.40;99.90
16728;DHT22;8482;54.396;18.590;2023-04-25T12:40:53;13.50;99.90
16728;DHT22;8482;54.396;18.590;2023-04-25T12:43:19;13.50;99.90
16728;DHT22;8482;54.396;18.590;2023-04-25T12:45:49;13.50;99.90
16728;DHT22;8482;54.396;18.590;2023-04-25T12:48:17;13.50;99.90
16728;DHT22;8482;54.396;18.590;2023-04-25T12:50:43;13.50;99.90
16728;DHT22;8482;54.396;18.590;2023-04-25T12:53:10;13.50;99.90
16728;DHT22;8482;54.396;18.590;2023-04-25T12:55:37;13.40;99.90
16728;DHT22;8482;54.396;18.590;2023-04-25T12:58:03;13.50;99.90
16728;DHT22;8482;54.396;18.590;2023-04-25T13:00:29;13.40;99.90
16728;DHT22;8482;54.396;18.590;2023-04-25T13:02:56;13.40;99.90
16728;DHT22;8482;54.396;18.590;2023-04-25T13:05:23;13.40;99.90
16728;DHT22;8482;54.396;18.590;2023-04-25T13:07:49;13.40;99.90
16728;DHT22;8482;54.396;18.590;2023-04-25T13:10:15;13.40;99.90
16728;DHT22;8482;54.396;18.590;2023-04-25T13:12:41;13.40;99.90
16728;DHT22;8482;54.396;18.590;2023-04-25T13:15:07;13.40;99.90
16728;DHT22;8482;54.396;18.590;2023-04-25T13:17:34;13.40;99.90
16728;DHT22;8482;54.396;18.590;2023-04-25T13:20:00;13.40;99.90
16728;DHT22;8482;54.396;18.590;2023-04-25T13:22:26;13.40;99.90
16728;DHT22;8482;54.396;18.590;2023-04-25T13:24:52;13.40;99.90
16728;DHT22;8482;54.396;18.590;2023-04-25T13:27:17;13.40;99.90
16728;DHT22;8482;54.396;18.590;2023-04-25T13:29:43;13.40;99.90
16728;DHT22;8482;54.396;18.590;2023-04-25T13:32:09;13.40;99.90
16728;DHT22;8482;54.396;18.590;2023-04-25T13:34:35;13.40;99.90
16728;DHT22;8482;54.396;18.590;2023-04-25T13:37:01;13.50;99.90
16728;DHT22;8482;54.396;18.590;2023-04-25T13:39:27;13.50;99.90
16728;DHT22;8482;54.396;18.590;2023-04-25T13:41:52;13.50;99.90
16728;DHT22;8482;54.396;18.590;2023-04-25T13:44:18;13.50;99.90
16728;DHT22;8482;54.396;18.590;2023-04-25T13:46:44;13.50;99.90
16728;DHT22;8482;54.396;18.590;2023-04-25T13:49:11;13.60;99.90
16728;DHT22;8482;54.396;18.590;2023-04-25T13:51:37;13.60;99.90
16728;DHT22;8482;54.396;18.590;2023-04-25T13:54:03;13.60;99.90
16728;DHT22;8482;54.396;18.590;2023-04-25T13:56:29;13.70;99.90
16728;DHT22;8482;54.396;18.590;2023-04-25T13:58:55;13.80;99.90
16728;DHT22;8482;54.396;18.590;2023-04-25T14:01:22;13.80;99.90
16728;DHT22;8482;54.396;18.590;2023-04-25T14:03:47;13.80;99.90
16728;DHT22;8482;54.396;18.590;2023-04-25T14:06:13;13.80;99.90
16728;DHT22;8482;54.396;18.590;2023-04-25T14:08:42;13.80;99.90
16728;DHT22;8482;54.396;18.590;2023-04-25T14:11:08;13.80;99.90
16728;DHT22;8482;54.396;18.590;2023-04-25T14:13:33;13.80;99.90
16728;DHT22;8482;54.396;18.590;2023-04-25T14:16:00;13.80;99.90
16728;DHT22;8482;54.396;18.590;2023-04-25T14:18:25;13.80;99.90
16728;DHT22;8482;54.396;18.590;2023-04-25T14:20:51;13.80;99.90
16728;DHT22;8482;54.396;18.590;2023-04-25T14:23:17;13.80;99.90
16728;DHT22;8482;54.396;18.590;2023-04-25T14:25:43;13.80;99.90
16728;DHT22;8482;54.396;18.590;2023-04-25T14:28:10;13.70;99.90
16728;DHT22;8482;54.396;18.590;2023-04-25T14:30:36;13.70;99.90
16728;DHT22;8482;54.396;18.590;2023-04-25T14:33:01;13.60;99.90
16728;DHT22;8482;54.396;18.590;2023-04-25T14:35:27;13.50;99.90
16728;DHT22;8482;54.396;18.590;2023-04-25T14:37:54;13.40;99.90
16728;DHT22;8482;54.396;18.590;2023-04-25T14:40:20;13.20;99.90
16728;DHT22;8482;54.396;18.590;2023-04-25T14:42:48;13.20;99.90
16728;DHT22;8482;54.396;18.590;2023-04-25T14:45:15;13.00;99.90
16728;DHT22;8482;54.396;18.590;2023-04-25T14:47:41;12.90;99.90
16728;DHT22;8482;54.396;18.590;2023-04-25T14:50:07;12.80;99.90
16728;DHT22;8482;54.396;18.590;2023-04-25T14:52:34;12.80;99.90
16728;DHT22;8482;54.396;18.590;2023-04-25T14:55:00;12.70;99.90
16728;DHT22;8482;54.396;18.590;2023-04-25T14:57:31;12.70;99.90
16728;DHT22;8482;54.396;18.590;2023-04-25T14:59:57;12.60;99.90
16728;DHT22;8482;54.396;18.590;2023-04-25T15:02:24;12.60;99.90
16728;DHT22;8482;54.396;18.590;2023-04-25T15:04:51;12.50;99.90
16728;DHT22;8482;54.396;18.590;2023-04-25T15:07:17;12.40;99.90
16728;DHT22;8482;54.396;18.590;2023-04-25T15:09:42;12.30;99.90
16728;DHT22;8482;54.396;18.590;2023-04-25T15:12:09;12.20;99.90
16728;DHT22;8482;54.396;18.590;2023-04-25T15:14:35;12.20;99.90
16728;DHT22;8482;54.396;18.590;2023-04-25T15:17:01;12.10;99.90
16728;DHT22;8482;54.396;18.590;2023-04-25T15:19:27;12.10;99.90
16728;DHT22;8482;54.396;18.590;2023-04-25T15:21:53;12.10;99.90
16728;DHT22;8482;54.396;18.590;2023-04-25T15:24:19;12.00;99.90
16728;DHT22;8482;54.396;18.590;2023-04-25T15:26:45;12.00;99.90
16728;DHT22;8482;54.396;18.590;2023-04-25T15:29:11;12.00;99.90
16728;DHT22;8482;54.396;18.590;2023-04-25T15:31:37;12.00;99.90
16728;DHT22;8482;54.396;18.590;2023-04-25T15:34:03;11.90;99.90
16728;DHT22;8482;54.396;18.590;2023-04-25T15:36:29;11.90;99.80
16728;DHT22;8482;54.396;18.590;2023-04-25T15:38:56;11.90;99.60
16728;DHT22;8482;54.396;18.590;2023-04-25T15:41:23;11.90;99.40
16728;DHT22;8482;54.396;18.590;2023-04-25T15:43:52;11.90;99.30
16728;DHT22;8482;54.396;18.590;2023-04-25T15:46:19;11.90;99.40
16728;DHT22;8482;54.396;18.590;2023-04-25T15:48:46;11.90;99.60
16728;DHT22;8482;54.396;18.590;2023-04-25T15:51:12;11.90;99.50
16728;DHT22;8482;54.396;18.590;2023-04-25T15:53:38;11.90;99.40
16728;DHT22;8482;54.396;18.590;2023-04-25T15:56:04;11.90;99.30
16728;DHT22;8482;54.396;18.590;2023-04-25T15:58:30;11.90;99.20
16728;DHT22;8482;54.396;18.590;2023-04-25T16:00:55;11.90;99.10
16728;DHT22;8482;54.396;18.590;2023-04-25T16:03:22;11.90;98.90
16728;DHT22;8482;54.396;18.590;2023-04-25T16:05:48;11.90;98.80
16728;DHT22;8482;54.396;18.590;2023-04-25T16:08:14;11.90;98.60
16728;DHT22;8482;54.396;18.590;2023-04-25T16:10:41;11.90;98.60
16728;DHT22;8482;54.396;18.590;2023-04-25T16:13:07;11.90;98.30
16728;DHT22;8482;54.396;18.590;2023-04-25T16:15:33;11.90;98.00
16728;DHT22;8482;54.396;18.590;2023-04-25T16:17:59;11.80;97.80
16728;DHT22;8482;54.396;18.590;2023-04-25T16:20:25;11.80;97.70
16728;DHT22;8482;54.396;18.590;2023-04-25T16:22:51;11.70;97.70
16728;DHT22;8482;54.396;18.590;2023-04-25T16:25:17;11.70;97.80
16728;DHT22;8482;54.396;18.590;2023-04-25T16:27:43;11.70;97.90
16728;DHT22;8482;54.396;18.590;2023-04-25T16:30:10;11.60;98.10
16728;DHT22;8482;54.396;18.590;2023-04-25T16:32:36;11.60;98.10
16728;DHT22;8482;54.396;18.590;2023-04-25T16:35:04;11.60;98.10
16728;DHT22;8482;54.396;18.590;2023-04-25T16:37:30;11.50;98.10
16728;DHT22;8482;54.396;18.590;2023-04-25T16:39:56;11.50;98.40
16728;DHT22;8482;54.396;18.590;2023-04-25T16:42:22;11.50;98.70
16728;DHT22;8482;54.396;18.590;2023-04-25T16:44:48;11.50;98.80
16728;DHT22;8482;54.396;18.590;2023-04-25T16:47:14;11.50;98.90
16728;DHT22;8482;54.396;18.590;2023-04-25T16:49:40;11.50;98.90
16728;DHT22;8482;54.396;18.590;2023-04-25T16:52:06;11.50;98.70
16728;DHT22;8482;54.396;18.590;2023-04-25T16:54:32;11.50;98.70
16728;DHT22;8482;54.396;18.590;2023-04-25T16:56:58;11.50;98.80
16728;DHT22;8482;54.396;18.590;2023-04-25T16:59:24;11.50;98.90
16728;DHT22;8482;54.396;18.590;2023-04-25T17:01:50;11.50;98.90
16728;DHT22;8482;54.396;18.590;2023-04-25T17:04:16;11.50;99.00
16728;DHT22;8482;54.396;18.590;2023-04-25T17:06:42;11.50;99.00
16728;DHT22;8482;54.396;18.590;2023-04-25T17:09:08;11.40;98.60
16728;DHT22;8482;54.396;18.590;2023-04-25T17:11:35;11.40;98.70
16728;DHT22;8482;54.396;18.590;2023-04-25T17:14:01;11.40;98.40
16728;DHT22;8482;54.396;18.590;2023-04-25T17:16:34;11.40;98.30
16728;DHT22;8482;54.396;18.590;2023-04-25T17:19:02;11.40;98.40
16728;DHT22;8482;54.396;18.590;2023-04-25T17:21:32;11.40;98.60
16728;DHT22;8482;54.396;18.590;2023-04-25T17:23:58;11.40;98.50
16728;DHT22;8482;54.396;18.590;2023-04-25T17:26:24;11.30;98.40
16728;DHT22;8482;54.396;18.590;2023-04-25T17:28:52;11.30;98.40
16728;DHT22;8482;54.396;18.590;2023-04-25T17:31:18;11.30;98.40
16728;DHT22;8482;54.396;18.590;2023-04-25T17:33:44;11.40;97.80
16728;DHT22;8482;54.396;18.590;2023-04-25T17:36:09;11.30;97.10
16728;DHT22;8482;54.396;18.590;2023-04-25T17:38:35;11.30;96.60
16728;DHT22;8482;54.396;18.590;2023-04-25T17:41:04;11.30;96.60
16728;DHT22;8482;54.396;18.590;2023-04-25T17:43:30;11.30;96.60
16728;DHT22;8482;54.396;18.590;2023-04-25T17:45:57;11.30;96.00
16728;DHT22;8482;54.396;18.590;2023-04-25T17:48:24;11.30;95.20
16728;DHT22;8482;54.396;18.590;2023-04-25T17:50:51;11.30;94.10
16728;DHT22;8482;54.396;18.590;2023-04-25T17:53:17;11.20;93.80
16728;DHT22;8482;54.396;18.590;2023-04-25T17:55:42;11.20;93.90
16728;DHT22;8482;54.396;18.590;2023-04-25T17:58:10;11.20;93.80
16728;DHT22;8482;54.396;18.590;2023-04-25T18:00:37;11.20;93.40
16728;DHT22;8482;54.396;18.590;2023-04-25T18:03:03;11.20;93.20
16728;DHT22;8482;54.396;18.590;2023-04-25T18:05:29;11.20;92.70
16728;DHT22;8482;54.396;18.590;2023-04-25T18:07:57;11.20;92.70
16728;DHT22;8482;54.396;18.590;2023-04-25T18:10:23;11.20;92.50
16728;DHT22;8482;54.396;18.590;2023-04-25T18:12:49;11.20;92.30
16728;DHT22;8482;54.396;18.590;2023-04-25T18:15:15;11.20;92.30
16728;DHT22;8482;54.396;18.590;2023-04-25T18:17:41;11.20;92.30
16728;DHT22;8482;54.396;18.590;2023-04-25T18:20:12;11.20;92.10
16728;DHT22;8482;54.396;18.590;2023-04-25T18:22:42;11.10;91.70
16728;DHT22;8482;54.396;18.590;2023-04-25T18:25:12;11.20;91.60
16728;DHT22;8482;54.396;18.590;2023-04-25T18:27:39;11.20;91.80
16728;DHT22;8482;54.396;18.590;2023-04-25T18:30:08;11.20;91.70
16728;DHT22;8482;54.396;18.590;2023-04-25T18:32:35;11.10;91.30
16728;DHT22;8482;54.396;18.590;2023-04-25T18:35:02;11.10;91.20
16728;DHT22;8482;54.396;18.590;2023-04-25T18:37:28;11.10;91.00
16728;DHT22;8482;54.396;18.590;2023-04-25T18:39:54;11.10;90.70
16728;DHT22;8482;54.396;18.590;2023-04-25T18:42:22;11.10;90.60
16728;DHT22;8482;54.396;18.590;2023-04-25T18:44:48;11.10;90.50
16728;DHT22;8482;54.396;18.590;2023-04-25T18:47:15;11.00;90.10
16728;DHT22;8482;54.396;18.590;2023-04-25T18:49:41;11.00;89.40
16728;DHT22;8482;54.396;18.590;2023-04-25T18:52:07;11.00;88.20
16728;DHT22;8482;54.396;18.590;2023-04-25T18:54:35;10.90;89.10
16728;DHT22;8482;54.396;18.590;2023-04-25T18:57:01;10.90;89.30
16728;DHT22;8482;54.396;18.590;2023-04-25T18:59:28;10.90;89.50
16728;DHT22;8482;54.396;18.590;2023-04-25T19:01:54;10.90;89.30
16728;DHT22;8482;54.396;18.590;2023-04-25T19:04:20;10.90;89.10
16728;DHT22;8482;54.396;18.590;2023-04-25T19:06:46;10.80;88.50
16728;DHT22;8482;54.396;18.590;2023-04-25T19:09:14;10.80;88.40
16728;DHT22;8482;54.396;18.590;2023-04-25T19:11:40;10.80;88.90
16728;DHT22;8482;54.396;18.590;2023-04-25T19:14:08;10.70;88.10
16728;DHT22;8482;54.396;18.590;2023-04-25T19:16:33;10.70;88.30
16728;DHT22;8482;54.396;18.590;2023-04-25T19:19:03;10.70;88.10
16728;DHT22;8482;54.396;18.590;2023-04-25T19:21:34;10.70;88.00
16728;DHT22;8482;54.396;18.590;2023-04-25T19:24:04;10.70;88.10
16728;DHT22;8482;54.396;18.590;2023-04-25T19:26:31;10.60;88.30
16728;DHT22;8482;54.396;18.590;2023-04-25T19:29:11;10.60;88.30
16728;DHT22;8482;54.396;18.590;2023-04-25T19:31:39;10.60;88.70
16728;DHT22;8482;54.396;18.590;2023-04-25T19:34:07;10.60;88.30
16728;DHT22;8482;54.396;18.590;2023-04-25T19:36:35;10.60;88.40
16728;DHT22;8482;54.396;18.590;2023-04-25T19:39:04;10.50;88.40
16728;DHT22;8482;54.396;18.590;2023-04-25T19:41:33;10.50;89.00
16728;DHT22;8482;54.396;18.590;2023-04-25T19:44:02;10.50;89.20
16728;DHT22;8482;54.396;18.590;2023-04-25T19:46:30;10.50;89.20
16728;DHT22;8482;54.396;18.590;2023-04-25T19:48:57;10.50;89.20
16728;DHT22;8482;54.396;18.590;2023-04-25T19:51:23;10.40;89.00
16728;DHT22;8482;54.396;18.590;2023-04-25T19:53:51;10.40;89.30
16728;DHT22;8482;54.396;18.590;2023-04-25T19:56:19;10.30;89.50
16728;DHT22;8482;54.396;18.590;2023-04-25T19:58:49;10.30;89.90
16728;DHT22;8482;54.396;18.590;2023-04-25T20:01:16;10.30;90.10
16728;DHT22;8482;54.396;18.590;2023-04-25T20:03:42;10.30;90.20
16728;DHT22;8482;54.396;18.590;2023-04-25T20:06:09;10.20;90.10
16728;DHT22;8482;54.396;18.590;2023-04-25T20:08:36;10.20;90.20
16728;DHT22;8482;54.396;18.590;2023-04-25T20:11:02;10.20;90.40
16728;DHT22;8482;54.396;18.590;2023-04-25T20:13:28;10.10;90.30